createdAt,value
2023-01-27T00:01:07.105Z,102405.38
2023-01-27T00:03:35.416Z,102408.25
2023-01-27T00:06:06.906Z,102400.13
2023-01-27T00:08:36.601Z,102404.72
2023-01-27T00:11:22.526Z,102395.75
2023-01-27T00:13:50.970Z,102394.78
2023-01-27T00:16:19.242Z,102389.44
2023-01-27T00:18:47.323Z,102388.56
2023-01-27T00:21:32.969Z,102389.59
2023-01-27T00:24:16.439Z,102396.88
2023-01-27T00:26:44.676Z,102384.06
2023-01-27T00:29:13.766Z,102381.28
2023-01-27T00:31:59.281Z,102380.63
2023-01-27T00:34:27.460Z,102376.19
2023-01-27T00:36:55.603Z,102373.53
2023-01-27T00:39:25.153Z,102369.91
2023-01-27T00:41:57.188Z,102357.28
2023-01-27T00:44:25.625Z,102358.06
2023-01-27T00:46:54.123Z,102353.66
2023-01-27T00:49:22.331Z,102355.38
2023-01-27T00:51:50.340Z,102353.66
2023-01-27T00:54:18.767Z,102355.38
2023-01-27T00:56:49.407Z,102359.00
2023-01-27T00:59:17.540Z,102353.91
2023-01-27T01:01:46.750Z,102354.75
2023-01-27T01:04:15.086Z,102354.00
2023-01-27T01:06:43.160Z,102352.25
2023-01-27T01:09:11.252Z,102346.06
2023-01-27T01:11:39.427Z,102347.06
2023-01-27T01:14:08.985Z,102345.25
2023-01-27T01:16:37.061Z,102343.59
2023-01-27T01:19:05.160Z,102336.72
2023-01-27T01:21:33.326Z,102338.59
2023-01-27T01:24:01.513Z,102338.59
2023-01-27T01:26:30.565Z,102333.22
2023-01-27T01:28:58.602Z,102345.69
2023-01-27T01:31:29.985Z,102342.06
2023-01-27T01:33:58.292Z,102345.78
2023-01-27T01:36:26.580Z,102337.03
2023-01-27T01:38:55.902Z,102334.16
2023-01-27T01:41:25.958Z,102328.91
2023-01-27T01:43:54.128Z,102339.63
2023-01-27T01:46:23.763Z,102339.78
2023-01-27T01:48:56.025Z,102327.69
2023-01-27T01:51:27.795Z,102325.72
2023-01-27T01:53:58.878Z,102318.88
2023-01-27T01:56:31.464Z,102322.31
2023-01-27T01:59:01.935Z,102310.94
2023-01-27T02:01:30.181Z,102310.94
2023-01-27T02:04:02.401Z,102317.06
2023-01-27T02:06:31.038Z,102308.06
2023-01-27T02:08:59.113Z,102309.88
2023-01-27T02:11:27.441Z,102307.13
2023-01-27T02:13:55.813Z,102307.13
2023-01-27T02:16:24.938Z,102305.50
2023-01-27T02:18:53.342Z,102300.22
2023-01-27T02:21:22.902Z,102309.19
2023-01-27T02:23:56.870Z,102302.09
2023-01-27T02:26:29.896Z,102307.28
2023-01-27T02:28:59.663Z,102307.28
2023-01-27T02:31:28.107Z,102303.75
2023-01-27T02:33:59.398Z,102296.66
2023-01-27T02:36:28.905Z,102303.66
2023-01-27T02:38:58.263Z,102309.03
2023-01-27T02:41:31.268Z,102303.56
2023-01-27T02:44:00.176Z,102309.97
2023-01-27T02:46:28.449Z,102310.94
2023-01-27T02:48:56.611Z,102312.63
2023-01-27T02:51:25.185Z,102315.22
2023-01-27T02:53:53.553Z,102318.78
2023-01-27T02:56:23.450Z,102308.06
2023-01-27T02:58:53.229Z,102312.50
2023-01-27T03:01:27.889Z,102311.59
2023-01-27T03:04:00.039Z,102303.56
2023-01-27T03:06:28.203Z,102299.97
2023-01-27T03:08:56.319Z,102294.69
2023-01-27T03:11:38.389Z,102287.59
2023-01-27T03:14:08.362Z,102304.50
2023-01-27T03:16:53.831Z,102299.16
2023-01-27T03:19:21.978Z,102296.44
2023-01-27T03:21:51.386Z,102300.13
2023-01-27T03:24:21.527Z,102307.13
2023-01-27T03:26:50.104Z,102300.91
2023-01-27T03:29:40.235Z,102301.91
2023-01-27T03:32:08.381Z,102295.53
2023-01-27T03:34:36.729Z,102297.38
2023-01-27T03:37:27.009Z,102296.44
2023-01-27T03:40:14.149Z,102293.81
2023-01-27T03:42:59.901Z,102279.47
2023-01-27T03:45:48.050Z,102284.91
2023-01-27T03:48:18.613Z,102287.94
2023-01-27T03:50:53.080Z,102277.16
2023-01-27T03:53:21.457Z,102277.22
2023-01-27T03:55:49.713Z,102272.72
2023-01-27T03:58:22.337Z,102268.41
2023-01-27T04:00:53.247Z,102274.47
2023-01-27T04:03:39.835Z,102279.09
2023-01-27T04:06:26.600Z,102274.88
2023-01-27T04:08:54.864Z,102264.94
2023-01-27T04:11:40.266Z,102262.38
2023-01-27T04:14:08.881Z,102259.78
2023-01-27T04:16:38.820Z,102259.59
2023-01-27T04:19:07.828Z,102252.34
2023-01-27T04:21:36.210Z,102245.09
2023-01-27T04:24:05.389Z,102243.34
2023-01-27T04:26:34.647Z,102247.78
2023-01-27T04:29:04.011Z,102236.97
2023-01-27T04:31:32.809Z,102239.56
2023-01-27T04:34:02.896Z,102228.75
2023-01-27T04:36:31.550Z,102237.66
2023-01-27T04:38:59.734Z,102242.06
2023-01-27T04:41:28.187Z,102239.56
2023-01-27T04:43:56.347Z,102237.84
2023-01-27T04:46:24.409Z,102235.16
2023-01-27T04:48:53.066Z,102243.97
2023-01-27T04:51:22.611Z,102239.56
2023-01-27T04:53:50.769Z,102243.19
2023-01-27T04:56:26.199Z,102246.66
2023-01-27T04:58:54.588Z,102249.34
2023-01-27T05:01:23.543Z,102252.16
2023-01-27T05:03:51.882Z,102252.34
2023-01-27T05:06:19.936Z,102257.59
2023-01-27T05:08:49.675Z,102255.97
2023-01-27T05:11:17.750Z,102249.75
2023-01-27T05:13:46.291Z,102250.44
2023-01-27T05:16:15.883Z,102251.38
2023-01-27T05:18:44.794Z,102244.31
2023-01-27T05:21:13.873Z,102241.63
2023-01-27T05:23:42.411Z,102230.31
2023-01-27T05:26:13.765Z,102224.09
2023-01-27T05:28:43.044Z,102222.28
2023-01-27T05:31:12.299Z,102227.28
2023-01-27T05:33:41.076Z,102211.22
2023-01-27T05:36:10.415Z,102215.63
2023-01-27T05:38:38.743Z,102217.63
2023-01-27T05:41:07.825Z,102222.03
2023-01-27T05:43:38.015Z,102210.38
2023-01-27T05:46:06.987Z,102213.81
2023-01-27T05:48:36.005Z,102214.53
2023-01-27T05:51:04.324Z,102214.53
2023-01-27T05:53:33.049Z,102217.19
2023-01-27T05:56:01.128Z,102228.84
2023-01-27T05:58:29.245Z,102224.34
2023-01-27T06:01:07.162Z,102228.94
2023-01-27T06:03:35.416Z,102233.34
2023-01-27T06:06:04.237Z,102228.06
2023-01-27T06:08:32.824Z,102233.50
2023-01-27T06:11:01.349Z,102226.25
2023-01-27T06:13:29.479Z,102215.56
2023-01-27T06:15:59.105Z,102232.75
2023-01-27T06:18:27.224Z,102234.22
2023-01-27T06:20:58.541Z,102224.25
2023-01-27T06:23:27.601Z,102226.25
2023-01-27T06:25:56.428Z,102230.22
2023-01-27T06:28:29.443Z,102230.72
2023-01-27T06:31:06.278Z,102227.56
2023-01-27T06:33:34.391Z,102225.56
2023-01-27T06:36:03.449Z,102228.16
2023-01-27T06:38:32.096Z,102231.94
2023-01-27T06:41:00.693Z,102236.34
2023-01-27T06:43:28.936Z,102230.91
2023-01-27T06:45:58.147Z,102224.97
2023-01-27T06:48:28.132Z,102233.00
2023-01-27T06:50:56.839Z,102223.50
2023-01-27T06:53:25.659Z,102227.03
2023-01-27T06:55:57.012Z,102226.84
2023-01-27T06:58:25.245Z,102231.25
2023-01-27T07:00:54.054Z,102224.00
2023-01-27T07:03:22.835Z,102217.78
2023-01-27T07:05:53.696Z,102220.47
2023-01-27T07:08:21.836Z,102218.63
2023-01-27T07:10:50.003Z,102220.56
2023-01-27T07:13:18.812Z,102221.50
2023-01-27T07:15:47.077Z,102220.56
2023-01-27T07:18:15.139Z,102220.56
2023-01-27T07:20:43.337Z,102219.63
2023-01-27T07:23:13.354Z,102217.03
2023-01-27T07:25:42.452Z,102222.28
2023-01-27T07:28:10.658Z,102227.66
2023-01-27T07:30:39.448Z,102233.84
2023-01-27T07:33:08.242Z,102238.34
2023-01-27T07:35:37.036Z,102241.97
2023-01-27T07:38:05.163Z,102250.00
2023-01-27T07:40:35.139Z,102251.13
2023-01-27T07:43:03.496Z,102254.59
2023-01-27T07:45:31.983Z,102255.72
2023-01-27T07:48:03.696Z,102251.97
2023-01-27T07:50:31.893Z,102236.97
2023-01-27T07:53:01.464Z,102244.03
2023-01-27T07:55:29.638Z,102240.41
2023-01-27T07:57:59.225Z,102242.22
2023-01-27T08:00:28.392Z,102252.84
2023-01-27T08:02:57.205Z,102253.72
2023-01-27T08:05:25.637Z,102254.59
2023-01-27T08:07:56.618Z,102265.44
2023-01-27T08:10:26.455Z,102266.31
2023-01-27T08:13:02.633Z,102270.19
2023-01-27T08:15:43.652Z,102267.53
2023-01-27T08:18:19.029Z,102262.34
2023-01-27T08:20:48.695Z,102264.13
2023-01-27T08:23:18.517Z,102268.72
2023-01-27T08:25:50.494Z,102260.94
2023-01-27T08:28:18.938Z,102261.25
2023-01-27T08:30:48.661Z,102247.03
2023-01-27T08:33:16.734Z,102235.78
2023-01-27T08:35:45.030Z,102231.53
2023-01-27T08:38:13.514Z,102238.31
2023-01-27T08:40:42.338Z,102245.97
2023-01-27T08:43:10.499Z,102264.22
2023-01-27T08:45:39.026Z,102254.72
2023-01-27T08:48:08.942Z,102245.44
2023-01-27T08:50:37.632Z,102245.09
2023-01-27T08:53:05.732Z,102260.28
2023-01-27T08:55:34.376Z,102207.59
2023-01-27T08:58:02.504Z,102209.19
2023-01-27T09:00:30.749Z,102248.09
2023-01-27T09:02:58.837Z,102245.41
2023-01-27T09:05:29.035Z,102232.81
2023-01-27T09:07:57.148Z,102214.91
2023-01-27T09:10:25.549Z,102237.84
2023-01-27T09:12:54.152Z,102224.88
2023-01-27T09:15:22.539Z,102241.78
2023-01-27T09:17:50.775Z,102229.22
2023-01-27T09:20:18.934Z,102246.09
2023-01-27T09:22:48.451Z,102220.13
2023-01-27T09:25:17.933Z,102238.00
2023-01-27T09:27:46.338Z,102211.53
2023-01-27T09:30:16.569Z,102235.75
2023-01-27T09:32:44.849Z,102232.38
2023-01-27T09:35:13.446Z,102225.75
2023-01-27T09:37:44.425Z,102234.50
2023-01-27T09:40:19.908Z,102226.91
2023-01-27T09:42:53.860Z,102237.78
2023-01-27T09:45:31.317Z,102237.28
2023-01-27T09:48:06.481Z,102238.84
2023-01-27T09:50:40.816Z,102235.22
2023-01-27T09:53:21.672Z,102238.66
2023-01-27T09:55:55.771Z,102227.81
2023-01-27T09:58:28.574Z,102244.91
2023-01-27T10:01:22.229Z,102234.84
2023-01-27T10:04:07.872Z,102241.41
2023-01-27T10:06:42.556Z,102239.75
2023-01-27T10:09:25.663Z,102240.94
2023-01-27T10:12:00.351Z,102233.44
2023-01-27T10:14:32.568Z,102247.97
2023-01-27T10:17:10.872Z,102249.91
2023-01-27T10:19:50.462Z,102253.78
2023-01-27T10:22:21.280Z,102263.34
2023-01-27T10:24:58.383Z,102262.84
2023-01-27T10:27:28.605Z,102257.69
2023-01-27T10:29:59.379Z,102268.75
2023-01-27T10:32:28.498Z,102255.63
2023-01-27T10:35:03.562Z,102246.16
2023-01-27T10:37:38.107Z,102235.03
2023-01-27T10:40:10.384Z,102227.84
2023-01-27T10:42:42.422Z,102213.38
2023-01-27T10:45:19.167Z,102206.59
2023-01-27T10:48:01.928Z,102205.88
2023-01-27T10:50:30.965Z,102210.69
2023-01-27T10:53:01.447Z,102201.28
2023-01-27T10:55:31.553Z,102202.41
2023-01-27T10:58:04.856Z,102201.47
2023-01-27T11:03:27.874Z,102175.03
2023-01-27T11:05:59.496Z,102169.56
2023-01-27T11:08:29.534Z,102179.44
2023-01-27T11:11:16.896Z,102187.13
2023-01-27T11:13:46.684Z,102205.13
2023-01-27T11:16:16.609Z,102209.09
2023-01-27T11:18:46.685Z,102181.88
2023-01-27T11:21:19.643Z,102168.63
2023-01-27T11:23:52.094Z,102161.03
2023-01-27T11:26:27.756Z,102162.19
2023-01-27T11:29:02.094Z,102169.75
2023-01-27T11:31:38.036Z,102171.19
2023-01-27T11:34:08.757Z,102175.06
2023-01-27T11:36:37.162Z,102157.44
2023-01-27T11:39:07.087Z,102152.50
2023-01-27T11:41:38.087Z,102144.22
2023-01-27T11:44:10.409Z,102160.22
2023-01-27T11:46:38.598Z,102142.75
2023-01-27T11:49:07.757Z,102131.44
2023-01-27T11:51:39.214Z,102127.25
2023-01-27T11:54:11.444Z,102114.16
2023-01-27T11:56:41.063Z,102110.47
2023-01-27T11:59:15.458Z,102096.91
2023-01-27T12:01:48.087Z,102110.56
2023-01-27T12:04:21.194Z,102105.53
2023-01-27T12:06:51.591Z,102089.53
2023-01-27T12:09:33.117Z,102092.00
2023-01-27T12:12:11.338Z,102084.31
2023-01-27T12:14:41.353Z,102090.41
2023-01-27T12:17:09.594Z,102084.38
2023-01-27T12:19:41.586Z,102083.03
2023-01-27T12:22:11.715Z,102089.88
2023-01-27T12:24:42.520Z,102082.81
2023-01-27T12:27:21.293Z,102081.81
2023-01-27T12:29:55.829Z,102058.66
2023-01-27T12:32:25.370Z,102079.03
2023-01-27T12:34:56.560Z,102069.97
2023-01-27T12:37:28.724Z,102058.41
2023-01-27T12:40:00.491Z,102056.06
2023-01-27T12:42:36.680Z,102065.97
2023-01-27T12:45:19.743Z,102061.66
2023-01-27T12:47:58.492Z,102065.03
2023-01-27T12:50:27.874Z,102075.84
2023-01-27T12:53:04.649Z,102069.03
2023-01-27T12:55:33.930Z,102078.78
2023-01-27T12:58:02.267Z,102064.56
2023-01-27T13:00:32.063Z,102062.31
2023-01-27T13:03:10.959Z,102052.19
2023-01-27T13:05:39.975Z,102052.75
2023-01-27T13:08:14.515Z,102051.06
2023-01-27T13:10:50.404Z,102048.34
2023-01-27T13:13:20.504Z,102032.28
2023-01-27T13:15:56.018Z,102037.13
2023-01-27T13:18:24.577Z,102040.72
2023-01-27T13:20:55.003Z,102042.81
2023-01-27T13:23:24.579Z,102047.38
2023-01-27T13:25:54.571Z,102044.03
2023-01-27T13:28:25.325Z,102040.84
2023-01-27T13:30:57.740Z,102032.00
2023-01-27T13:33:31.896Z,102028.59
2023-01-27T13:36:01.218Z,102008.88
2023-01-27T13:38:33.003Z,102016.13
2023-01-27T13:41:06.398Z,102019.69
2023-01-27T13:43:41.453Z,102020.16
2023-01-27T13:46:17.176Z,102003.03
2023-01-27T13:48:47.765Z,102017.41
2023-01-27T13:51:16.910Z,102015.66
2023-01-27T13:53:47.249Z,102019.50
2023-01-27T13:56:22.175Z,102009.78
2023-01-27T13:58:56.439Z,101999.97
2023-01-27T14:01:30.168Z,101995.22
2023-01-27T14:04:22.826Z,101987.38
2023-01-27T14:06:59.511Z,101983.69
2023-01-27T14:09:40.690Z,101983.91
2023-01-27T14:12:14.659Z,101994.94
2023-01-27T14:14:58.286Z,101986.69
2023-01-27T14:17:41.136Z,101987.28
2023-01-27T14:20:16.176Z,101988.75
2023-01-27T14:22:48.703Z,101983.84
2023-01-27T14:25:21.830Z,101995.59
2023-01-27T14:27:53.745Z,102004.06
2023-01-27T14:30:25.303Z,101986.41
2023-01-27T14:32:59.679Z,101987.41
2023-01-27T14:35:32.934Z,102009.75
2023-01-27T14:38:06.792Z,102010.75
2023-01-27T14:40:39.826Z,102018.75
2023-01-27T14:43:14.311Z,102004.81
2023-01-27T14:45:46.415Z,101995.81
2023-01-27T14:48:23.353Z,101998.13
2023-01-27T14:50:55.404Z,101988.44
2023-01-27T14:53:37.144Z,102003.69
2023-01-27T14:56:13.050Z,102006.84
2023-01-27T14:58:46.416Z,102016.53
2023-01-27T15:01:21.637Z,102010.31
2023-01-27T15:04:05.312Z,102007.75
2023-01-27T15:06:37.400Z,101999.50
2023-01-27T15:09:10.253Z,101987.25
2023-01-27T15:11:45.656Z,101986.97
2023-01-27T15:14:21.271Z,101959.47
2023-01-27T15:16:55.834Z,101950.69
2023-01-27T15:19:35.581Z,101954.84
2023-01-27T15:22:21.501Z,101963.13
2023-01-27T15:24:58.243Z,101953.06
2023-01-27T15:27:27.346Z,101953.06
2023-01-27T15:29:55.572Z,101960.72
2023-01-27T15:32:27.794Z,101965.09
2023-01-27T15:35:14.185Z,101956.00
2023-01-27T15:37:56.740Z,101962.88
2023-01-27T15:41:12.793Z,101964.84
2023-01-27T15:43:44.263Z,101968.09
2023-01-27T15:46:20.563Z,101971.81
2023-01-27T15:48:49.344Z,101970.06
2023-01-27T15:51:19.951Z,101967.94
2023-01-27T15:53:50.703Z,101969.66
2023-01-27T15:56:19.080Z,101978.84
2023-01-27T15:58:53.579Z,101987.72
2023-01-27T16:01:27.643Z,101993.47
2023-01-27T16:04:06.167Z,102006.53
2023-01-27T16:06:36.391Z,102004.69
2023-01-27T16:09:06.589Z,101998.81
2023-01-27T16:11:43.060Z,101990.06
2023-01-27T16:14:34.075Z,101994.50
2023-01-27T16:17:16.761Z,101995.88
2023-01-27T16:19:47.866Z,102003.16
2023-01-27T16:22:19.651Z,101996.81
2023-01-27T16:24:49.644Z,101994.81
2023-01-27T16:27:23.549Z,101996.56
2023-01-27T16:29:58.211Z,102017.09
2023-01-27T16:32:30.119Z,102014.88
2023-01-27T16:35:00.648Z,102018.78
2023-01-27T16:37:31.241Z,102018.97
2023-01-27T16:40:02.188Z,102017.69
2023-01-27T16:42:32.409Z,102014.25
2023-01-27T16:45:02.981Z,102027.31
2023-01-27T16:47:38.197Z,102014.81
2023-01-27T16:50:06.824Z,102010.00
2023-01-27T16:52:42.270Z,102013.22
2023-01-27T16:55:20.892Z,102016.47
2023-01-27T16:57:49.036Z,102029.81
2023-01-27T17:00:20.448Z,102027.84
2023-01-27T17:02:49.054Z,102029.22
2023-01-27T17:05:19.344Z,102008.69
2023-01-27T17:10:50.336Z,102021.38
2023-01-27T17:13:29.327Z,102022.66
2023-01-27T17:15:59.050Z,102020.72
2023-01-27T17:18:27.416Z,102014.25
2023-01-27T17:20:55.895Z,102013.53
2023-01-27T17:23:25.804Z,102009.53
2023-01-27T17:26:03.494Z,102016.94
2023-01-27T17:28:31.752Z,102020.38
2023-01-27T17:31:07.142Z,102016.28
2023-01-27T17:33:37.048Z,102027.78
2023-01-27T17:36:10.120Z,102039.25
2023-01-27T17:38:44.609Z,102043.28
2023-01-27T17:41:29.316Z,102043.66
2023-01-27T17:44:01.661Z,102045.13
2023-01-27T17:46:31.135Z,102052.06
2023-01-27T17:49:00.501Z,102061.56
2023-01-27T17:51:30.213Z,102065.97
2023-01-27T17:53:59.487Z,102072.78
2023-01-27T17:56:29.635Z,102073.38
2023-01-27T17:59:01.264Z,102077.59
2023-01-27T18:01:29.573Z,102076.78
2023-01-27T18:03:58.723Z,102083.84
2023-01-27T18:06:28.887Z,102087.63
2023-01-27T18:08:58.495Z,102081.13
2023-01-27T18:11:31.278Z,102078.03
2023-01-27T18:14:03.104Z,102075.66
2023-01-27T18:16:31.394Z,102071.84
2023-01-27T18:19:10.574Z,102071.25
2023-01-27T18:21:38.794Z,102074.28
2023-01-27T18:24:15.441Z,102077.00
2023-01-27T18:26:43.749Z,102073.78
2023-01-27T18:29:22.571Z,102068.16
2023-01-27T18:31:52.267Z,102067.34
2023-01-27T18:34:23.259Z,102066.25
2023-01-27T18:36:52.932Z,102057.25
2023-01-27T18:39:34.881Z,102059.75
2023-01-27T18:42:03.912Z,102058.41
2023-01-27T18:44:37.424Z,102068.66
2023-01-27T18:47:24.290Z,102062.03
2023-01-27T18:49:55.047Z,102063.94
2023-01-27T18:52:23.268Z,102064.13
2023-01-27T18:54:54.621Z,102062.50
2023-01-27T18:57:22.905Z,102061.59
2023-01-27T18:59:52.648Z,102064.34
2023-01-27T19:02:21.009Z,102059.97
2023-01-27T19:04:49.345Z,102074.22
2023-01-27T19:07:18.758Z,102074.44
2023-01-27T19:09:48.170Z,102075.59
2023-01-27T19:12:16.671Z,102080.34
2023-01-27T19:14:46.613Z,102070.09
2023-01-27T19:17:17.753Z,102067.88
2023-01-27T19:19:46.042Z,102067.88
2023-01-27T19:22:15.961Z,102071.66
2023-01-27T19:24:45.523Z,102069.06
2023-01-27T19:27:14.894Z,102081.81
2023-01-27T19:29:43.562Z,102078.28
2023-01-27T19:32:12.908Z,102070.50
2023-01-27T19:34:43.296Z,102075.16
2023-01-27T19:37:17.077Z,102075.59
2023-01-27T19:39:45.960Z,102075.75
2023-01-27T19:42:15.185Z,102077.88
2023-01-27T19:44:43.769Z,102077.16
2023-01-27T19:47:13.428Z,102086.22
2023-01-27T19:49:43.020Z,102089.94
2023-01-27T19:52:11.618Z,102092.81
2023-01-27T19:54:39.940Z,102081.41
2023-01-27T19:57:11.383Z,102100.09
2023-01-27T19:59:39.603Z,102096.88
2023-01-27T20:02:07.948Z,102090.78
2023-01-27T20:04:36.479Z,102090.84
2023-01-27T20:07:06.128Z,102088.25
2023-01-27T20:09:34.216Z,102085.66
2023-01-27T20:12:02.496Z,102083.28
2023-01-27T20:14:30.582Z,102080.72
2023-01-27T20:16:58.938Z,102080.84
2023-01-27T20:19:27.092Z,102089.03
2023-01-27T20:21:58.349Z,102088.28
2023-01-27T20:24:27.937Z,102088.41
2023-01-27T20:26:58.522Z,102090.41
2023-01-27T20:29:26.662Z,102094.25
2023-01-27T20:31:54.702Z,102098.84
2023-01-27T20:34:22.983Z,102104.31
2023-01-27T20:36:51.353Z,102109.75
2023-01-27T20:39:19.520Z,102110.72
2023-01-27T20:41:51.137Z,102107.22
2023-01-27T20:44:19.485Z,102108.19
2023-01-27T20:46:47.868Z,102109.19
2023-01-27T20:49:15.950Z,102111.03
2023-01-27T20:51:44.012Z,102112.16
2023-01-27T20:54:13.299Z,102118.56
2023-01-27T20:56:42.524Z,102118.66
2023-01-27T20:59:12.981Z,102121.44
2023-01-27T21:01:42.461Z,102123.25
2023-01-27T21:04:10.999Z,102131.28
2023-01-27T21:06:39.689Z,102119.88
2023-01-27T21:09:08.367Z,102128.03
2023-01-27T21:11:37.481Z,102128.16
2023-01-27T21:14:06.463Z,102132.81
2023-01-27T21:16:37.936Z,102130.22
2023-01-27T21:19:06.293Z,102128.41
2023-01-27T21:21:34.694Z,102142.66
2023-01-27T21:24:03.490Z,102135.53
2023-01-27T21:26:32.791Z,102134.44
2023-01-27T21:29:01.838Z,102125.44
2023-01-27T21:31:31.222Z,102126.19
2023-01-27T21:34:02.020Z,102120.81
2023-01-27T21:36:31.099Z,102118.22
2023-01-27T21:39:02.601Z,102111.19
2023-01-27T21:41:49.079Z,102111.25
2023-01-27T21:44:36.119Z,102112.22
2023-01-27T21:47:05.456Z,102113.13
2023-01-27T21:49:56.980Z,102111.50
2023-01-27T21:52:27.261Z,102102.84
2023-01-27T21:54:55.660Z,102090.56
2023-01-27T21:57:24.302Z,102092.63
2023-01-27T21:59:59.139Z,102090.88
2023-01-27T22:02:31.114Z,102090.16
2023-01-27T22:05:01.115Z,102077.78
2023-01-27T22:07:34.418Z,102072.59
2023-01-27T22:10:02.834Z,102064.63
2023-01-27T22:12:30.892Z,102069.00
2023-01-27T22:14:59.349Z,102060.16
2023-01-27T22:17:27.667Z,102066.47
2023-01-27T22:19:55.981Z,102061.38
2023-01-27T22:22:25.840Z,102069.34
2023-01-27T22:24:54.129Z,102072.94
2023-01-27T22:27:22.849Z,102069.47
2023-01-27T22:29:51.188Z,102074.88
2023-01-27T22:32:19.203Z,102068.88
2023-01-27T22:34:47.966Z,102071.63
2023-01-27T22:37:16.264Z,102075.19
2023-01-27T22:39:45.836Z,102072.59
2023-01-27T22:42:13.861Z,102082.38
2023-01-27T22:44:42.254Z,102092.13
2023-01-27T22:47:10.755Z,102100.25
2023-01-27T22:49:39.489Z,102105.56
2023-01-27T22:52:07.907Z,102101.25
2023-01-27T22:54:37.215Z,102105.66
2023-01-27T22:57:07.244Z,102088.03
2023-01-27T22:59:36.232Z,102096.97
2023-01-27T23:02:04.534Z,102084.75
2023-01-27T23:04:32.964Z,102087.41
2023-01-27T23:07:01.850Z,102087.59
2023-01-27T23:09:29.960Z,102087.63
2023-01-27T23:11:58.068Z,102085.00
2023-01-27T23:14:27.609Z,102092.00
2023-01-27T23:16:56.003Z,102089.25
2023-01-27T23:19:24.798Z,102081.28
2023-01-27T23:21:53.005Z,102084.53
2023-01-27T23:24:21.941Z,102077.28
2023-01-27T23:26:50.194Z,102071.69
2023-01-27T23:29:24.527Z,102080.31
2023-01-27T23:31:55.585Z,102071.31
2023-01-27T23:34:24.159Z,102069.34
2023-01-27T23:36:53.901Z,102076.28
2023-01-27T23:39:21.947Z,102078.81
2023-01-27T23:41:50.246Z,102088.41
2023-01-27T23:44:19.407Z,102090.09
2023-01-27T23:46:47.854Z,102082.91
2023-01-27T23:49:18.143Z,102080.22
2023-01-27T23:51:46.227Z,102088.19
2023-01-27T23:54:14.697Z,102083.81
2023-01-27T23:56:42.823Z,102093.59
2023-01-27T23:59:13.265Z,102097.28
